Attica, NY

10:40 PM EST on December 26, 2014 (GMT -0500)
Darien, NY | Change Station
CLOSE
Current Station
Personal Weather Station
Location: Corfu, NY
Elevation: 886 ft
Nearby Weather Stations

Elev 886 ft 42.95 °N, 78.38 °W | Updated 6 minutes ago

Clear
Clear
37.9 °F
Feels Like 35 °F
N
3.8
Wind Variable Wind from SSW

Today
High -- | Low -- °F
--% Chance of Precip.
Yesterday
High -- | Low -- °F
Precip. -- in
7:42 AM 4:44 PM
Waxing Crescent, 32% visible
Pressure 30.16 in
Visibility 10.0 miles
Clouds Few 20000 ft
Few 30000 ft
Windchill 35 °F
Dew Point 30 °F
Humidity 72%
Rainfall 0.00 in
Snow Depth Not available.
UV 0 out of 12
Pollen .10 out of 12
Air Quality Not available.
Flu Activity Not available.
METAR KBUF 270254Z 22006KT 10SM FEW200 FEW300 04/01 A3013 RMK AO2 SLP211 T00440011 55000

More Conditions Fewer Conditions

Pressure 30.16 in
Visibility 10.0 miles
Clouds Few 20000 ft
Few 30000 ft
Windchill 35 °F
Dew Point 30 °F
Humidity 72%
Rainfall 0.00 in
Snow Depth Not available.
UV 0 out of 12
Pollen .10 out of 12
Air Quality Not available.
Flu Activity Not available.
METAR KBUF 270254Z 22006KT 10SM FEW200 FEW300 04/01 A3013 RMK AO2 SLP211 T00440011 55000

More Conditions Fewer Conditions

10-Day Weather Forecast

Almanac

Astronomy

Dec. 26, 2014 Rise Set
Actual Time
Civil Twilight
Nautical Twilight
Astronomical Twilight
Moon
Length of Visible Light
Length of Day
Tomorrow will be .
, % of the Moon is Illuminated

Today's Extremes

State Highs State Lows

Community

WunderPhotos

Upload Photos

1,780,836 photos uploaded!

WunderBlogs® & News

Nearby

Air Quality

  Air Quality AQ Index Pollutant
Not available.

Snow Depth

Station Depth Elevation

Earthquake Activity

City Distance Mag. Time & Date
Minimum magnitude displayed is 2.5.

Coastal Water Temperatures

Place Temperature

Nearby Weather Stations